createdAt,value
2022-09-27T00:00:21.427Z,99566.60
2022-09-27T00:03:30.661Z,99551.55
2022-09-27T00:06:25.565Z,99564.45
2022-09-27T00:09:14.810Z,99580.03
2022-09-27T00:12:04.937Z,99578.66
2022-09-27T00:14:54.284Z,99576.50
2022-09-27T00:17:44.903Z,99575.96
2022-09-27T00:20:36.178Z,99567.11
2022-09-27T00:23:25.054Z,99558.50
2022-09-27T00:26:15.324Z,99556.06
2022-09-27T00:29:04.201Z,99554.73
2022-09-27T00:31:53.776Z,99563.04
2022-09-27T00:34:43.760Z,99549.06
2022-09-27T00:37:33.539Z,99539.13
2022-09-27T00:40:24.498Z,99537.51
2022-09-27T00:43:20.025Z,99547.70
2022-09-27T00:46:10.268Z,99546.09
2022-09-27T00:49:12.115Z,99549.85
2022-09-27T00:52:05.660Z,99534.80
2022-09-27T00:55:00.871Z,99523.52
2022-09-27T00:57:50.938Z,99524.59
2022-09-27T01:00:45.083Z,99522.15
2022-09-27T01:03:43.538Z,99511.14
2022-09-27T01:06:32.905Z,99506.55
2022-09-27T01:09:23.559Z,99507.89
2022-09-27T01:12:23.301Z,99492.03
2022-09-27T01:15:22.726Z,99489.63
2022-09-27T01:18:28.885Z,99490.69
2022-09-27T01:21:52.866Z,99488.26
2022-09-27T01:25:00.802Z,99499.00
2022-09-27T01:28:20.263Z,99494.45
2022-09-27T01:31:20.630Z,99490.94
2022-09-27T01:34:19.566Z,99478.34
2022-09-27T01:37:14.257Z,99465.70
2022-09-27T01:40:10.744Z,99466.77
2022-09-27T01:43:28.632Z,99463.30
2022-09-27T01:46:24.902Z,99447.98
2022-09-27T01:49:43.228Z,99440.75
2022-09-27T01:52:36.508Z,99445.30
2022-09-27T01:55:31.609Z,99449.05
2022-09-27T01:58:47.162Z,99434.83
2022-09-27T02:01:39.656Z,99419.52
2022-09-27T02:04:32.302Z,99412.53
2022-09-27T02:07:38.011Z,99413.87
2022-09-27T02:10:34.540Z,99404.21
2022-09-27T02:13:33.336Z,99400.16
2022-09-27T02:16:44.407Z,99411.43
2022-09-27T02:19:48.114Z,99411.43
2022-09-27T02:22:42.954Z,99410.89
2022-09-27T02:25:43.237Z,99411.17
2022-09-27T02:28:40.625Z,99419.75
2022-09-27T02:31:29.196Z,99415.45
2022-09-27T02:34:22.917Z,99419.45
2022-09-27T02:37:12.185Z,99396.65
2022-09-27T02:40:03.397Z,99407.38
2022-09-27T02:42:52.972Z,99412.45
2022-09-27T02:45:52.270Z,99417.25
2022-09-27T02:48:51.986Z,99416.70
2022-09-27T02:51:52.622Z,99418.05
2022-09-27T02:54:50.181Z,99413.76
2022-09-27T02:58:17.684Z,99412.67
2022-09-27T03:01:50.266Z,99405.94
2022-09-27T03:04:59.871Z,99405.14
2022-09-27T03:07:49.649Z,99400.02
2022-09-27T03:10:39.039Z,99403.77
2022-09-27T03:13:28.367Z,99409.66
2022-09-27T03:16:18.399Z,99409.13
2022-09-27T03:19:18.186Z,99414.22
2022-09-27T03:22:30.492Z,99417.42
2022-09-27T03:25:21.000Z,99415.27
2022-09-27T03:28:10.254Z,99412.03
2022-09-27T03:30:59.648Z,99402.38
2022-09-27T03:34:14.807Z,99394.84
2022-09-27T03:37:04.383Z,99398.59
2022-09-27T03:39:53.340Z,99398.59
2022-09-27T03:42:44.098Z,99385.19
2022-09-27T03:45:36.170Z,99388.11
2022-09-27T03:48:30.572Z,99388.94
2022-09-27T03:51:19.620Z,99382.75
2022-09-27T03:54:08.541Z,99387.33
2022-09-27T03:56:56.927Z,99381.95
2022-09-27T03:59:45.474Z,99392.69
2022-09-27T04:02:57.197Z,99400.73
2022-09-27T04:05:46.331Z,99390.25
2022-09-27T04:08:39.594Z,99395.38
2022-09-27T04:11:28.349Z,99390.00
2022-09-27T04:14:17.307Z,99395.38
2022-09-27T04:17:27.067Z,99393.76
2022-09-27T04:20:48.475Z,99396.69
2022-09-27T04:23:37.023Z,99399.12
2022-09-27T04:26:26.393Z,99389.46
2022-09-27T04:29:27.846Z,99389.46
2022-09-27T04:32:17.831Z,99379.80
2022-09-27T04:35:44.474Z,99378.19
2022-09-27T04:38:33.848Z,99378.19
2022-09-27T04:41:24.404Z,99384.34
2022-09-27T04:44:12.995Z,99388.09
2022-09-27T04:47:04.249Z,99389.70
2022-09-27T04:49:53.579Z,99395.34
2022-09-27T04:52:42.739Z,99389.98
2022-09-27T04:55:31.972Z,99380.32
2022-09-27T04:58:22.091Z,99367.70
2022-09-27T05:01:12.100Z,99365.84
2022-09-27T05:04:04.517Z,99357.80
2022-09-27T05:06:57.154Z,99350.55
2022-09-27T05:09:57.388Z,99340.09
2022-09-27T05:12:46.961Z,99344.63
2022-09-27T05:15:37.563Z,99360.73
2022-09-27T05:19:06.289Z,99355.36
2022-09-27T05:22:14.669Z,99343.84
2022-09-27T05:25:04.037Z,99356.43
2022-09-27T05:27:53.993Z,99358.05
2022-09-27T05:30:43.837Z,99353.75
2022-09-27T05:33:37.674Z,99345.45
2022-09-27T05:36:47.145Z,99355.11
2022-09-27T05:39:37.080Z,99355.11
2022-09-27T05:42:26.671Z,99355.66
2022-09-27T05:45:15.018Z,99361.57
2022-09-27T05:48:05.244Z,99343.59
2022-09-27T05:50:57.445Z,99356.75
2022-09-27T05:53:46.027Z,99347.36
2022-09-27T05:56:40.893Z,99349.80
2022-09-27T06:00:09.737Z,99356.77
2022-09-27T06:03:03.288Z,99362.68
2022-09-27T06:06:18.224Z,99370.45
2022-09-27T06:09:16.786Z,99369.13
2022-09-27T06:12:11.503Z,99358.95
2022-09-27T06:15:01.077Z,99364.03
2022-09-27T06:18:07.249Z,99374.23
2022-09-27T06:21:00.474Z,99371.03
2022-09-27T06:23:54.122Z,99364.07
2022-09-27T06:26:50.689Z,99366.77
2022-09-27T06:29:58.107Z,99365.72
2022-09-27T06:33:23.104Z,99360.94
2022-09-27T06:39:11.530Z,99360.16
2022-09-27T06:42:36.475Z,99366.34
2022-09-27T06:45:37.724Z,99363.66
2022-09-27T06:48:47.727Z,99362.88
2022-09-27T06:51:37.760Z,99352.14
2022-09-27T06:54:26.516Z,99342.48
2022-09-27T06:57:35.545Z,99342.48
2022-09-27T07:00:26.979Z,99349.46
2022-09-27T07:03:41.174Z,99346.78
2022-09-27T07:06:40.516Z,99349.72
2022-09-27T07:09:55.077Z,99365.05
2022-09-27T07:12:48.345Z,99366.66
2022-09-27T07:15:40.794Z,99367.73
2022-09-27T07:18:34.043Z,99359.92
2022-09-27T07:21:22.798Z,99367.98
2022-09-27T07:24:11.307Z,99376.33
2022-09-27T07:27:02.356Z,99366.11
2022-09-27T07:29:51.533Z,99359.91
2022-09-27T07:32:41.621Z,99348.36
2022-09-27T07:35:33.155Z,99352.11
2022-09-27T07:38:22.905Z,99336.00
2022-09-27T07:41:14.731Z,99344.05
2022-09-27T07:44:05.944Z,99354.80
2022-09-27T07:46:57.566Z,99351.28
2022-09-27T07:50:01.681Z,99342.66
2022-09-27T07:53:06.413Z,99341.04
2022-09-27T07:56:16.669Z,99339.41
2022-09-27T07:59:05.221Z,99350.44
2022-09-27T08:01:55.846Z,99351.51
2022-09-27T08:04:46.545Z,99347.19
2022-09-27T08:07:38.392Z,99345.27
2022-09-27T08:10:30.169Z,99343.64
2022-09-27T08:13:20.691Z,99340.13
2022-09-27T08:16:13.767Z,99346.31
2022-09-27T08:19:21.978Z,99355.16
2022-09-27T08:22:29.125Z,99350.83
2022-09-27T08:25:27.809Z,99359.96
2022-09-27T08:28:35.308Z,99346.24
2022-09-27T08:31:35.598Z,99363.70
2022-09-27T08:34:27.727Z,99368.27
2022-09-27T08:37:17.137Z,99361.25
2022-09-27T08:40:11.067Z,99355.84
2022-09-27T08:43:12.466Z,99349.64
2022-09-27T08:46:14.120Z,99361.46
2022-09-27T08:49:09.510Z,99358.50
2022-09-27T08:52:00.847Z,99346.36
2022-09-27T08:54:51.578Z,99351.19
2022-09-27T08:57:41.226Z,99349.55
2022-09-27T09:00:31.617Z,99352.20
2022-09-27T09:03:24.685Z,99361.33
2022-09-27T09:06:21.433Z,99354.03
2022-09-27T09:09:20.821Z,99345.09
2022-09-27T09:12:46.805Z,99332.41
2022-09-27T09:15:57.927Z,99339.06
2022-09-27T09:19:19.246Z,99326.07
2022-09-27T09:22:52.856Z,99331.94
2022-09-27T09:25:49.186Z,99331.10
2022-09-27T09:28:56.577Z,99322.15
2022-09-27T09:31:56.058Z,99309.71
2022-09-27T09:34:52.115Z,99296.70
2022-09-27T09:37:44.745Z,99291.55
2022-09-27T09:40:36.670Z,99292.63
2022-09-27T09:43:31.687Z,99282.35
2022-09-27T09:46:25.082Z,99280.11
2022-09-27T09:49:22.102Z,99284.63
2022-09-27T09:52:18.659Z,99285.15
2022-09-27T09:55:19.280Z,99290.27
2022-09-27T09:58:20.336Z,99287.78
2022-09-27T10:01:18.821Z,99281.03
2022-09-27T10:04:13.849Z,99278.27
2022-09-27T10:07:02.968Z,99270.91
2022-09-27T10:09:57.462Z,99278.94
2022-09-27T10:13:20.336Z,99284.27
2022-09-27T10:16:16.361Z,99280.20
2022-09-27T10:19:07.324Z,99273.41
2022-09-27T10:22:01.446Z,99262.34
2022-09-27T10:25:01.350Z,99262.55
2022-09-27T10:28:10.471Z,99262.78
2022-09-27T10:31:02.262Z,99255.98
2022-09-27T10:34:01.255Z,99260.80
2022-09-27T10:37:04.450Z,99250.52
2022-09-27T10:39:54.574Z,99252.94
2022-09-27T10:42:44.562Z,99253.73
2022-09-27T10:45:36.535Z,99247.23
2022-09-27T10:48:31.285Z,99250.17
2022-09-27T10:51:29.869Z,99254.67
2022-09-27T10:54:33.588Z,99251.47
2022-09-27T10:57:23.730Z,99251.47
2022-09-27T11:00:23.034Z,99240.90
2022-09-27T11:03:17.066Z,99251.34
2022-09-27T11:06:27.235Z,99249.39
2022-09-27T11:09:26.317Z,99233.11
2022-09-27T11:12:19.992Z,99233.03
2022-09-27T11:15:18.662Z,99239.95
2022-09-27T11:18:17.606Z,99245.78
2022-09-27T11:21:14.949Z,99230.78
2022-09-27T11:24:19.297Z,99230.92
2022-09-27T11:27:21.297Z,99225.93
2022-09-27T11:30:15.063Z,99227.16
2022-09-27T11:33:35.055Z,99225.47
2022-09-27T11:36:35.882Z,99223.77
2022-09-27T11:39:29.575Z,99209.06
2022-09-27T11:42:48.424Z,99211.67
2022-09-27T11:49:20.027Z,99203.48
2022-09-27T11:52:38.959Z,99200.06
2022-09-27T11:55:41.880Z,99196.66
2022-09-27T11:58:40.744Z,99194.84
2022-09-27T12:01:40.215Z,99187.93
2022-09-27T12:04:46.516Z,99198.33
2022-09-27T12:07:49.200Z,99203.63
2022-09-27T12:10:43.634Z,99195.72
2022-09-27T12:13:38.338Z,99187.77
2022-09-27T12:16:30.555Z,99182.36
2022-09-27T12:19:23.057Z,99194.00
2022-09-27T12:22:53.894Z,99198.10
2022-09-27T12:25:40.654Z,99208.43
2022-09-27T12:28:46.531Z,99198.71
2022-09-27T12:31:42.853Z,99180.09
2022-09-27T12:34:39.697Z,99190.42
2022-09-27T12:37:33.167Z,99207.26
2022-09-27T12:40:27.584Z,99195.73
2022-09-27T12:43:20.904Z,99170.88
2022-09-27T12:46:33.612Z,99149.56
2022-09-27T12:49:34.929Z,99166.69
2022-09-27T12:52:30.418Z,99171.42
2022-09-27T12:55:47.456Z,99160.70
2022-09-27T12:59:04.685Z,99138.36
2022-09-27T13:02:20.094Z,99143.38
2022-09-27T13:05:43.634Z,99143.48
2022-09-27T13:08:54.381Z,99150.92
2022-09-27T13:11:53.910Z,99154.23
2022-09-27T13:14:51.269Z,99169.45
2022-09-27T13:17:56.198Z,99175.42
2022-09-27T13:20:52.740Z,99159.48
2022-09-27T13:23:53.373Z,99161.41
2022-09-27T13:27:01.174Z,99144.38
2022-09-27T13:29:52.386Z,99147.08
2022-09-27T13:33:01.624Z,99154.40
2022-09-27T13:36:30.112Z,99153.30
2022-09-27T13:39:31.214Z,99146.97
2022-09-27T13:42:55.297Z,99135.30
2022-09-27T13:45:55.318Z,99126.09
2022-09-27T13:48:50.970Z,99136.30
2022-09-27T13:51:47.494Z,99134.09
2022-09-27T13:54:50.503Z,99132.06
2022-09-27T13:57:55.568Z,99127.26
2022-09-27T14:00:50.827Z,99118.60
2022-09-27T14:04:00.803Z,99125.70
2022-09-27T14:06:54.386Z,99117.64
2022-09-27T14:09:47.935Z,99122.33
2022-09-27T14:12:43.015Z,99115.08
2022-09-27T14:15:33.650Z,99107.94
2022-09-27T14:18:24.848Z,99108.17
2022-09-27T14:21:28.148Z,99114.57
2022-09-27T14:24:47.828Z,99124.95
2022-09-27T14:27:40.678Z,99115.43
2022-09-27T14:30:46.226Z,99127.73
2022-09-27T14:34:08.569Z,99135.53
2022-09-27T14:37:17.191Z,99144.97
2022-09-27T14:40:22.536Z,99160.10
2022-09-27T14:43:19.070Z,99158.18
2022-09-27T14:46:08.262Z,99165.81
2022-09-27T14:48:58.770Z,99181.89
2022-09-27T14:51:52.914Z,99184.39
2022-09-27T14:54:43.721Z,99189.14
2022-09-27T14:57:33.915Z,99181.92
2022-09-27T15:00:28.602Z,99191.77
2022-09-27T15:03:24.733Z,99190.75
2022-09-27T15:06:13.905Z,99196.77
2022-09-27T15:09:04.464Z,99187.66
2022-09-27T15:11:58.470Z,99189.38
2022-09-27T15:14:53.254Z,99191.91
2022-09-27T15:17:45.738Z,99176.56
2022-09-27T15:20:36.085Z,99169.38
2022-09-27T15:23:30.184Z,99155.96
2022-09-27T15:26:22.919Z,99152.27
2022-09-27T15:29:21.872Z,99158.89
2022-09-27T15:32:18.027Z,99156.30
2022-09-27T15:35:20.838Z,99162.59
2022-09-27T15:38:30.689Z,99153.80
2022-09-27T15:41:21.567Z,99145.98
2022-09-27T15:44:36.464Z,99148.50
2022-09-27T15:47:50.815Z,99135.88
2022-09-27T15:50:41.245Z,99128.19
2022-09-27T15:53:45.569Z,99136.09
2022-09-27T15:56:34.903Z,99127.80
2022-09-27T15:59:26.114Z,99135.16
2022-09-27T16:02:18.409Z,99139.56
2022-09-27T16:05:09.360Z,99149.70
2022-09-27T16:07:58.659Z,99138.17
2022-09-27T16:10:51.111Z,99114.76
2022-09-27T16:13:40.336Z,99095.13
2022-09-27T16:16:29.400Z,99103.65
2022-09-27T16:19:18.669Z,99101.83
2022-09-27T16:22:08.448Z,99097.91
2022-09-27T16:24:57.403Z,99107.20
2022-09-27T16:27:46.775Z,99107.89
2022-09-27T16:30:35.325Z,99112.09
2022-09-27T16:33:24.291Z,99128.98
2022-09-27T16:36:18.612Z,99126.92
2022-09-27T16:39:12.068Z,99108.48
2022-09-27T16:42:04.606Z,99110.25
2022-09-27T16:44:54.668Z,99127.11
2022-09-27T16:47:44.043Z,99123.48
2022-09-27T16:50:51.221Z,99112.56
2022-09-27T16:53:39.984Z,99103.52
2022-09-27T16:56:28.732Z,99110.36
2022-09-27T16:59:17.487Z,99117.50
2022-09-27T17:02:06.521Z,99123.03
2022-09-27T17:04:55.612Z,99119.35
2022-09-27T17:07:43.755Z,99114.60
2022-09-27T17:10:34.504Z,99114.73
2022-09-27T17:13:23.317Z,99116.19
2022-09-27T17:16:13.593Z,99117.61
2022-09-27T17:19:02.664Z,99128.23
2022-09-27T17:21:51.831Z,99132.91
2022-09-27T17:24:39.979Z,99129.53
2022-09-27T17:27:30.128Z,99132.59
2022-09-27T17:30:20.557Z,99136.95
2022-09-27T17:33:09.105Z,99133.27
2022-09-27T17:36:11.962Z,99149.23
2022-09-27T17:39:04.024Z,99147.98
2022-09-27T17:41:52.984Z,99126.80
2022-09-27T17:44:41.739Z,99129.30
2022-09-27T17:47:48.867Z,99136.06
2022-09-27T17:50:37.273Z,99142.03
2022-09-27T17:53:25.823Z,99142.06
2022-09-27T17:56:15.406Z,99137.80
2022-09-27T17:59:05.414Z,99145.89
2022-09-27T18:01:55.072Z,99152.11
2022-09-27T18:04:44.117Z,99142.44
2022-09-27T18:07:33.690Z,99141.94
2022-09-27T18:10:22.652Z,99157.00
2022-09-27T18:13:12.429Z,99168.56
2022-09-27T18:16:02.265Z,99165.89
2022-09-27T18:18:52.068Z,99176.66
2022-09-27T18:21:40.756Z,99185.03
2022-09-27T18:24:29.701Z,99179.14
2022-09-27T18:27:19.687Z,99179.95
2022-09-27T18:30:12.132Z,99180.25
2022-09-27T18:33:00.884Z,99172.20
2022-09-27T18:35:49.644Z,99178.66
2022-09-27T18:38:39.213Z,99188.33
2022-09-27T18:41:30.058Z,99180.54
2022-09-27T18:44:19.847Z,99180.30
2022-09-27T18:47:08.988Z,99191.83
2022-09-27T18:49:58.123Z,99192.65
2022-09-27T18:52:46.902Z,99190.76
2022-09-27T18:55:39.368Z,99189.97
2022-09-27T18:58:28.500Z,99190.51
2022-09-27T19:01:18.304Z,99210.88
2022-09-27T19:04:07.640Z,99289.48
2022-09-27T19:06:58.007Z,99337.52
2022-09-27T19:09:46.308Z,99318.17
2022-09-27T19:12:34.932Z,99341.23
2022-09-27T19:15:25.317Z,99356.25
2022-09-27T19:18:13.460Z,99369.64
2022-09-27T19:21:10.303Z,99352.98
2022-09-27T19:23:59.161Z,99332.27
2022-09-27T19:26:49.501Z,99316.44
2022-09-27T19:29:40.356Z,99314.00
2022-09-27T19:32:31.162Z,99298.44
2022-09-27T19:35:20.734Z,99292.28
2022-09-27T19:38:09.693Z,99287.19
2022-09-27T19:40:59.293Z,99291.48
2022-09-27T19:43:52.732Z,99275.15
2022-09-27T19:46:44.628Z,99263.60
2022-09-27T19:49:33.726Z,99240.29
2022-09-27T19:52:22.890Z,99169.50
2022-09-27T19:55:12.672Z,99205.43
2022-09-27T19:58:01.632Z,99208.11
2022-09-27T20:00:58.008Z,99219.91
2022-09-27T20:03:47.127Z,99234.11
2022-09-27T20:06:35.675Z,99248.58
2022-09-27T20:09:24.643Z,99236.24
2022-09-27T20:12:13.390Z,99239.20
2022-09-27T20:15:02.349Z,99210.23
2022-09-27T20:17:51.108Z,99191.72
2022-09-27T20:20:40.273Z,99185.56
2022-09-27T20:23:29.031Z,99188.50
2022-09-27T20:26:18.783Z,99197.61
2022-09-27T20:29:08.887Z,99205.11
2022-09-27T20:32:22.954Z,99208.59
2022-09-27T20:35:10.550Z,99216.62
2022-09-27T20:37:57.785Z,99218.21
2022-09-27T20:40:53.599Z,99199.16
2022-09-27T20:43:43.900Z,99188.95
2022-09-27T20:46:35.127Z,99203.42
2022-09-27T20:49:24.273Z,99206.92
2022-09-27T20:52:12.828Z,99196.45
2022-09-27T20:55:01.380Z,99196.73
2022-09-27T20:57:57.471Z,99194.30
2022-09-27T21:00:46.902Z,99195.64
2022-09-27T21:03:35.427Z,99189.73
2022-09-27T21:06:26.839Z,99196.16
2022-09-27T21:09:18.117Z,99193.98
2022-09-27T21:12:07.238Z,99191.80
2022-09-27T21:14:56.175Z,99182.66
2022-09-27T21:17:45.342Z,99190.98
2022-09-27T21:20:33.893Z,99204.62
2022-09-27T21:23:23.261Z,99198.17
2022-09-27T21:26:13.656Z,99208.61
2022-09-27T21:29:05.888Z,99201.09
2022-09-27T21:31:53.483Z,99200.80
2022-09-27T21:34:42.789Z,99198.91
2022-09-27T21:37:31.338Z,99202.34
2022-09-27T21:40:20.947Z,99195.11
2022-09-27T21:43:09.053Z,99192.13
2022-09-27T21:46:04.364Z,99181.38
2022-09-27T21:48:55.292Z,99184.84
2022-09-27T21:51:44.777Z,99190.72
2022-09-27T21:54:34.271Z,99200.33
2022-09-27T21:57:22.865Z,99188.77
2022-09-27T22:00:14.694Z,99191.16
2022-09-27T22:03:03.035Z,99190.30
2022-09-27T22:05:52.730Z,99192.70
2022-09-27T22:08:42.185Z,99186.25
2022-09-27T22:11:33.357Z,99180.03
2022-09-27T22:14:22.746Z,99184.55
2022-09-27T22:17:11.931Z,99190.42
2022-09-27T22:20:00.684Z,99191.98
2022-09-27T22:22:49.648Z,99193.56
2022-09-27T22:25:38.196Z,99191.63
2022-09-27T22:28:27.360Z,99193.75
2022-09-27T22:31:18.801Z,99193.20
2022-09-27T22:34:16.052Z,99203.84
2022-09-27T22:37:04.683Z,99202.98
2022-09-27T22:39:53.340Z,99199.20
2022-09-27T22:42:41.988Z,99208.78
2022-09-27T22:45:30.745Z,99214.08
2022-09-27T22:48:20.728Z,99212.97
2022-09-27T22:51:11.123Z,99206.73
2022-09-27T22:53:59.875Z,99210.19
2022-09-27T22:56:56.524Z,99216.27
2022-09-27T22:59:46.191Z,99208.19
2022-09-27T23:02:34.742Z,99207.34
2022-09-27T23:05:24.692Z,99210.51
2022-09-27T23:08:14.709Z,99214.73
2022-09-27T23:11:04.670Z,99210.69
2022-09-27T23:13:53.450Z,99212.00
2022-09-27T23:16:42.663Z,99218.64
2022-09-27T23:19:32.924Z,99224.48
2022-09-27T23:22:21.760Z,99222.56
2022-09-27T23:25:11.402Z,99224.12
2022-09-27T23:28:00.297Z,99221.94
2022-09-27T23:30:50.088Z,99222.66
2022-09-27T23:33:40.672Z,99227.45
2022-09-27T23:36:29.841Z,99222.86
2022-09-27T23:39:18.593Z,99221.48
2022-09-27T23:42:07.142Z,99229.98
2022-09-27T23:44:56.308Z,99222.72
2022-09-27T23:47:44.858Z,99226.67
2022-09-27T23:50:33.407Z,99234.13
2022-09-27T23:53:23.395Z,99228.22
2022-09-27T23:56:15.278Z,99218.59
2022-09-27T23:59:04.587Z,99218.03
